sensor_id;sensor_type;location;lat;lon;timestamp;pressure;altitude;pressure_sealevel;temperature;humidity
69909;BME280;57190;47.918;8.112;2024-03-02T00:01:12;89677.72;;;3.02;80.56
69909;BME280;57190;47.918;8.112;2024-03-02T00:03:38;89690.03;;;2.96;80.34
69909;BME280;57190;47.918;8.112;2024-03-02T00:06:04;89682.69;;;2.98;79.70
69909;BME280;57190;47.918;8.112;2024-03-02T00:08:29;89685.88;;;3.01;79.65
69909;BME280;57190;47.918;8.112;2024-03-02T00:13:53;89690.38;;;3.05;79.80
69909;BME280;57190;47.918;8.112;2024-03-02T00:19:40;89683.47;;;2.99;80.18
69909;BME280;57190;47.918;8.112;2024-03-02T00:22:07;89675.56;;;2.99;80.13
69909;BME280;57190;47.918;8.112;2024-03-02T00:24:34;89684.44;;;2.88;79.46
69909;BME280;57190;47.918;8.112;2024-03-02T00:27:01;89685.47;;;2.87;80.21
69909;BME280;57190;47.918;8.112;2024-03-02T00:29:29;89684.44;;;2.88;80.08
69909;BME280;57190;47.918;8.112;2024-03-02T00:31:55;89690.22;;;2.90;80.16
69909;BME280;57190;47.918;8.112;2024-03-02T00:34:21;89685.22;;;2.88;80.72
69909;BME280;57190;47.918;8.112;2024-03-02T00:36:46;89679.19;;;2.93;80.51
69909;BME280;57190;47.918;8.112;2024-03-02T00:39:15;89687.38;;;2.91;80.62
69909;BME280;57190;47.918;8.112;2024-03-02T00:41:42;89686.56;;;2.91;80.13
69909;BME280;57190;47.918;8.112;2024-03-02T00:44:09;89684.44;;;2.88;80.43
69909;BME280;57190;47.918;8.112;2024-03-02T00:46:39;89689.16;;;2.86;80.77
69909;BME280;57190;47.918;8.112;2024-03-02T00:49:24;89680.69;;;2.83;80.08
69909;BME280;57190;47.918;8.112;2024-03-02T00:51:52;89681.22;;;2.80;80.60
69909;BME280;57190;47.918;8.112;2024-03-02T00:54:22;89681.50;;;2.84;80.12
69909;BME280;57190;47.918;8.112;2024-03-02T00:56:49;89683.63;;;2.87;80.68
69909;BME280;57190;47.918;8.112;2024-03-02T00:59:15;89687.06;;;2.88;80.74
69909;BME280;57190;47.918;8.112;2024-03-02T01:01:40;89684.97;;;2.90;80.11
69909;BME280;57190;47.918;8.112;2024-03-02T01:04:07;89685.50;;;2.92;80.09
69909;BME280;57190;47.918;8.112;2024-03-02T01:06:32;89685.47;;;2.87;80.36
69909;BME280;57190;47.918;8.112;2024-03-02T01:08:59;89680.25;;;2.92;79.66
69909;BME280;57190;47.918;8.112;2024-03-02T01:11:24;89687.59;;;2.90;79.55
69909;BME280;57190;47.918;8.112;2024-03-02T01:13:50;89689.13;;;2.80;80.29
69909;BME280;57190;47.918;8.112;2024-03-02T01:16:17;89684.78;;;2.69;79.39
69909;BME280;57190;47.918;8.112;2024-03-02T01:18:43;89678.13;;;2.61;79.82
69909;BME280;57190;47.918;8.112;2024-03-02T01:21:08;89687.06;;;2.60;80.16
69909;BME280;57190;47.918;8.112;2024-03-02T01:23:34;89683.53;;;2.49;80.42
69909;BME280;57190;47.918;8.112;2024-03-02T01:25:59;89682.19;;;2.47;80.56
69909;BME280;57190;47.918;8.112;2024-03-02T01:28:25;89682.00;;;2.54;81.19
69909;BME280;57190;47.918;8.112;2024-03-02T01:30:50;89674.69;;;2.61;80.45
69909;BME280;57190;47.918;8.112;2024-03-02T01:33:19;89676.00;;;2.58;80.04
69909;BME280;57190;47.918;8.112;2024-03-02T01:35:46;89684.06;;;2.51;79.86
69909;BME280;57190;47.918;8.112;2024-03-02T01:38:13;89681.34;;;2.41;80.50
69909;BME280;57190;47.918;8.112;2024-03-02T01:40:38;89677.91;;;2.41;80.09
69909;BME280;57190;47.918;8.112;2024-03-02T01:43:06;89676.28;;;2.34;80.66
69909;BME280;57190;47.918;8.112;2024-03-02T01:45:33;89675.44;;;2.29;80.08
69909;BME280;57190;47.918;8.112;2024-03-02T01:47:59;89669.34;;;2.28;81.07
69909;BME280;57190;47.918;8.112;2024-03-02T01:50:34;89673.56;;;2.29;80.41
69909;BME280;57190;47.918;8.112;2024-03-02T01:53:00;89670.16;;;2.29;80.79
69909;BME280;57190;47.918;8.112;2024-03-02T01:55:26;89668.81;;;2.26;80.19
69909;BME280;57190;47.918;8.112;2024-03-02T01:57:54;89667.88;;;2.15;80.02
69909;BME280;57190;47.918;8.112;2024-03-02T02:00:20;89665.16;;;2.05;80.63
69909;BME280;57190;47.918;8.112;2024-03-02T02:02:49;89660.38;;;2.02;80.05
69909;BME280;57190;47.918;8.112;2024-03-02T02:05:15;89657.31;;;1.88;80.07
69909;BME280;57190;47.918;8.112;2024-03-02T02:07:41;89666.97;;;1.82;80.81
69909;BME280;57190;47.918;8.112;2024-03-02T02:10:08;89671.16;;;1.78;80.98
69909;BME280;57190;47.918;8.112;2024-03-02T02:12:34;89672.00;;;1.84;81.79
69909;BME280;57190;47.918;8.112;2024-03-02T02:15:00;89671.75;;;1.85;81.57
69909;BME280;57190;47.918;8.112;2024-03-02T02:17:26;89663.31;;;1.83;81.80
69909;BME280;57190;47.918;8.112;2024-03-02T02:19:51;89667.47;;;1.79;81.57
69909;BME280;57190;47.918;8.112;2024-03-02T02:22:17;89665.50;;;1.69;81.26
69909;BME280;57190;47.918;8.112;2024-03-02T02:24:43;89667.50;;;1.62;80.54
69909;BME280;57190;47.918;8.112;2024-03-02T02:27:09;89661.31;;;1.51;81.41
69909;BME280;57190;47.918;8.112;2024-03-02T02:29:35;89656.00;;;1.46;81.01
69909;BME280;57190;47.918;8.112;2024-03-02T02:32:01;89644.78;;;1.51;81.21
69909;BME280;57190;47.918;8.112;2024-03-02T02:34:26;89643.81;;;1.40;81.14
69909;BME280;57190;47.918;8.112;2024-03-02T02:36:52;89637.78;;;1.22;80.72
69909;BME280;57190;47.918;8.112;2024-03-02T02:39:20;89638.28;;;1.19;81.44
69909;BME280;57190;47.918;8.112;2024-03-02T02:41:46;89628.41;;;1.27;81.21
69909;BME280;57190;47.918;8.112;2024-03-02T02:44:12;89637.72;;;1.34;81.35
69909;BME280;57190;47.918;8.112;2024-03-02T02:46:39;89636.84;;;1.29;80.79
69909;BME280;57190;47.918;8.112;2024-03-02T02:49:04;89630.47;;;1.24;80.80
69909;BME280;57190;47.918;8.112;2024-03-02T02:51:30;89635.25;;;1.28;81.33
69909;BME280;57190;47.918;8.112;2024-03-02T02:53:55;89630.00;;;1.28;81.25
69909;BME280;57190;47.918;8.112;2024-03-02T02:56:21;89627.59;;;1.26;81.82
69909;BME280;57190;47.918;8.112;2024-03-02T02:58:46;89630.69;;;1.40;83.02
69909;BME280;57190;47.918;8.112;2024-03-02T03:01:12;89629.31;;;1.54;82.37
69909;BME280;57190;47.918;8.112;2024-03-02T03:03:37;89635.41;;;1.60;82.16
69909;BME280;57190;47.918;8.112;2024-03-02T03:06:03;89641.75;;;1.42;81.44
69909;BME280;57190;47.918;8.112;2024-03-02T03:08:28;89628.59;;;1.42;81.68
69909;BME280;57190;47.918;8.112;2024-03-02T03:10:54;89633.41;;;1.45;81.88
69909;BME280;57190;47.918;8.112;2024-03-02T03:13:19;89625.97;;;1.42;81.84
69909;BME280;57190;47.918;8.112;2024-03-02T03:15:45;89631.25;;;1.42;82.55
69909;BME280;57190;47.918;8.112;2024-03-02T03:18:10;89629.34;;;1.37;81.77
69909;BME280;57190;47.918;8.112;2024-03-02T03:20:36;89633.00;;;1.36;82.87
69909;BME280;57190;47.918;8.112;2024-03-02T03:23:01;89633.31;;;1.40;82.77
69909;BME280;57190;47.918;8.112;2024-03-02T03:25:29;89632.78;;;1.38;81.99
69909;BME280;57190;47.918;8.112;2024-03-02T03:27:55;89634.91;;;1.41;82.63
69909;BME280;57190;47.918;8.112;2024-03-02T03:30:20;89635.72;;;1.41;82.30
69909;BME280;57190;47.918;8.112;2024-03-02T03:32:46;89636.19;;;1.38;82.56
69909;BME280;57190;47.918;8.112;2024-03-02T03:35:13;89642.72;;;1.36;83.00
69909;BME280;57190;47.918;8.112;2024-03-02T03:37:40;89638.66;;;1.45;82.37
69909;BME280;57190;47.918;8.112;2024-03-02T03:40:06;89627.81;;;1.41;82.58
69909;BME280;57190;47.918;8.112;2024-03-02T03:42:38;89624.63;;;1.39;82.29
69909;BME280;57190;47.918;8.112;2024-03-02T03:45:04;89619.53;;;1.33;83.01
69909;BME280;57190;47.918;8.112;2024-03-02T03:47:33;89623.59;;;1.40;82.99
69909;BME280;57190;47.918;8.112;2024-03-02T03:49:58;89628.97;;;1.29;82.67
69909;BME280;57190;47.918;8.112;2024-03-02T03:52:24;89626.09;;;1.30;82.83
69909;BME280;57190;47.918;8.112;2024-03-02T03:54:50;89622.59;;;1.24;83.74
69909;BME280;57190;47.918;8.112;2024-03-02T03:57:16;89624.59;;;1.17;82.69
69909;BME280;57190;47.918;8.112;2024-03-02T03:59:42;89625.56;;;1.11;83.04
69909;BME280;57190;47.918;8.112;2024-03-02T04:02:08;89626.03;;;1.08;83.23
69909;BME280;57190;47.918;8.112;2024-03-02T04:04:34;89630.41;;;1.19;83.96
69909;BME280;57190;47.918;8.112;2024-03-02T04:06:59;89630.72;;;1.23;84.07
69909;BME280;57190;47.918;8.112;2024-03-02T04:09:25;89634.94;;;1.24;83.62
69909;BME280;57190;47.918;8.112;2024-03-02T04:11:51;89633.25;;;1.18;82.88
69909;BME280;57190;47.918;8.112;2024-03-02T04:14:16;89634.31;;;1.17;82.60
69909;BME280;57190;47.918;8.112;2024-03-02T04:16:43;89633.91;;;1.08;83.09
69909;BME280;57190;47.918;8.112;2024-03-02T04:19:08;89630.34;;;0.97;82.64
69909;BME280;57190;47.918;8.112;2024-03-02T04:21:33;89627.41;;;0.93;82.94
69909;BME280;57190;47.918;8.112;2024-03-02T04:23:59;89623.66;;;0.89;83.27
69909;BME280;57190;47.918;8.112;2024-03-02T04:26:25;89629.06;;;1.00;83.16
69909;BME280;57190;47.918;8.112;2024-03-02T04:28:51;89634.63;;;1.03;83.51
69909;BME280;57190;47.918;8.112;2024-03-02T04:31:17;89633.84;;;1.03;83.58
69909;BME280;57190;47.918;8.112;2024-03-02T04:33:42;89638.28;;;1.02;83.74
69909;BME280;57190;47.918;8.112;2024-03-02T04:36:08;89643.84;;;1.06;83.37
69909;BME280;57190;47.918;8.112;2024-03-02T04:38:35;89638.69;;;1.11;83.71
69909;BME280;57190;47.918;8.112;2024-03-02T04:41:00;89641.31;;;1.11;83.77
69909;BME280;57190;47.918;8.112;2024-03-02T04:43:26;89648.72;;;0.97;82.77
69909;BME280;57190;47.918;8.112;2024-03-02T04:45:52;89646.59;;;0.77;82.55
69909;BME280;57190;47.918;8.112;2024-03-02T04:48:17;89643.78;;;0.67;82.60
69909;BME280;57190;47.918;8.112;2024-03-02T04:50:43;89645.69;;;0.71;83.08
69909;BME280;57190;47.918;8.112;2024-03-02T04:53:08;89647.84;;;0.74;83.00
69909;BME280;57190;47.918;8.112;2024-03-02T04:55:34;89655.81;;;0.80;82.87
69909;BME280;57190;47.918;8.112;2024-03-02T04:57:59;89657.16;;;0.82;83.00
69909;BME280;57190;47.918;8.112;2024-03-02T05:00:25;89655.66;;;0.86;83.15
69909;BME280;57190;47.918;8.112;2024-03-02T05:02:50;89666.78;;;0.93;82.91
69909;BME280;57190;47.918;8.112;2024-03-02T05:05:16;89657.16;;;0.82;82.57
69909;BME280;57190;47.918;8.112;2024-03-02T05:07:42;89664.06;;;0.71;82.61
69909;BME280;57190;47.918;8.112;2024-03-02T05:10:09;89647.84;;;0.74;82.70
69909;BME280;57190;47.918;8.112;2024-03-02T05:12:35;89655.03;;;0.79;83.51
69909;BME280;57190;47.918;8.112;2024-03-02T05:15:20;89655.09;;;0.84;83.37
69909;BME280;57190;47.918;8.112;2024-03-02T05:17:46;89657.25;;;0.87;83.91
69909;BME280;57190;47.918;8.112;2024-03-02T05:20:12;89646.09;;;0.97;83.39
69909;BME280;57190;47.918;8.112;2024-03-02T05:22:38;89661.03;;;0.97;83.47
69909;BME280;57190;47.918;8.112;2024-03-02T05:25:05;89654.28;;;1.01;83.25
69909;BME280;57190;47.918;8.112;2024-03-02T05:27:31;89659.09;;;1.04;84.23
69909;BME280;57190;47.918;8.112;2024-03-02T05:29:58;89660.19;;;1.08;84.20
69909;BME280;57190;47.918;8.112;2024-03-02T05:32:24;89656.38;;;1.16;83.79
69909;BME280;57190;47.918;8.112;2024-03-02T05:34:49;89656.91;;;1.18;83.83
69909;BME280;57190;47.918;8.112;2024-03-02T05:37:16;89647.75;;;1.20;83.82
69909;BME280;57190;47.918;8.112;2024-03-02T05:39:42;89653.66;;;1.28;83.42
69909;BME280;57190;47.918;8.112;2024-03-02T05:42:08;89648.69;;;1.31;82.66
69909;BME280;57190;47.918;8.112;2024-03-02T05:44:35;89651.50;;;1.24;82.94
69909;BME280;57190;47.918;8.112;2024-03-02T05:47:00;89652.84;;;1.27;83.17
69909;BME280;57190;47.918;8.112;2024-03-02T05:49:26;89646.31;;;1.30;82.88
69909;BME280;57190;47.918;8.112;2024-03-02T05:51:51;89648.13;;;1.29;83.45
69909;BME280;57190;47.918;8.112;2024-03-02T05:54:16;89645.81;;;1.33;82.88
69909;BME280;57190;47.918;8.112;2024-03-02T05:56:42;89645.91;;;1.38;82.91
69909;BME280;57190;47.918;8.112;2024-03-02T05:59:07;89645.59;;;1.34;82.50
69909;BME280;57190;47.918;8.112;2024-03-02T06:01:43;89640.09;;;1.36;82.53
69909;BME280;57190;47.918;8.112;2024-03-02T06:04:29;89647.09;;;1.30;82.08
69909;BME280;57190;47.918;8.112;2024-03-02T06:06:54;89651.00;;;1.28;82.59
69909;BME280;57190;47.918;8.112;2024-03-02T06:09:21;89651.25;;;1.26;82.71
69909;BME280;57190;47.918;8.112;2024-03-02T06:11:48;89643.59;;;1.24;82.87
69909;BME280;57190;47.918;8.112;2024-03-02T06:14:13;89653.09;;;1.25;83.13
69909;BME280;57190;47.918;8.112;2024-03-02T06:16:39;89646.53;;;1.28;82.93
69909;BME280;57190;47.918;8.112;2024-03-02T06:19:05;89644.78;;;1.34;82.90
69909;BME280;57190;47.918;8.112;2024-03-02T06:21:30;89642.97;;;1.34;81.96
69909;BME280;57190;47.918;8.112;2024-03-02T06:23:56;89654.69;;;1.27;82.42
69909;BME280;57190;47.918;8.112;2024-03-02T06:26:21;89645.75;;;1.28;81.72
69909;BME280;57190;47.918;8.112;2024-03-02T06:28:47;89638.34;;;1.24;81.48
69909;BME280;57190;47.918;8.112;2024-03-02T06:31:13;89638.50;;;1.18;81.28
69909;BME280;57190;47.918;8.112;2024-03-02T06:33:38;89636.63;;;1.13;81.64
69909;BME280;57190;47.918;8.112;2024-03-02T06:36:05;89636.13;;;1.16;81.59
69909;BME280;57190;47.918;8.112;2024-03-02T06:38:33;89632.16;;;1.14;81.37
69909;BME280;57190;47.918;8.112;2024-03-02T06:40:59;89633.59;;;1.21;81.22
69909;BME280;57190;47.918;8.112;2024-03-02T06:43:24;89640.00;;;1.31;81.17
69909;BME280;57190;47.918;8.112;2024-03-02T06:45:50;89637.06;;;1.44;81.00
69909;BME280;57190;47.918;8.112;2024-03-02T06:48:17;89649.38;;;1.44;80.43
69909;BME280;57190;47.918;8.112;2024-03-02T06:50:49;89629.03;;;1.34;79.90
69909;BME280;57190;47.918;8.112;2024-03-02T06:53:15;89648.66;;;1.48;80.52
69909;BME280;57190;47.918;8.112;2024-03-02T06:55:43;89643.81;;;1.40;79.80
69909;BME280;57190;47.918;8.112;2024-03-02T06:58:11;89645.19;;;1.43;79.53
69909;BME280;57190;47.918;8.112;2024-03-02T07:00:36;89649.16;;;1.45;79.24
69909;BME280;57190;47.918;8.112;2024-03-02T07:03:02;89654.06;;;1.59;79.94
69909;BME280;57190;47.918;8.112;2024-03-02T07:05:28;89655.38;;;1.78;80.20
69909;BME280;57190;47.918;8.112;2024-03-02T07:07:53;89655.31;;;1.95;79.89
69909;BME280;57190;47.918;8.112;2024-03-02T07:10:18;89662.75;;;2.03;79.15
69909;BME280;57190;47.918;8.112;2024-03-02T07:12:45;89659.22;;;2.15;79.17
69909;BME280;57190;47.918;8.112;2024-03-02T07:15:10;89661.72;;;2.27;78.98
69909;BME280;57190;47.918;8.112;2024-03-02T07:17:46;89661.38;;;2.45;78.23
69909;BME280;57190;47.918;8.112;2024-03-02T07:20:12;89664.47;;;2.64;78.40
69909;BME280;57190;47.918;8.112;2024-03-02T07:22:38;89659.53;;;2.73;77.60
69909;BME280;57190;47.918;8.112;2024-03-02T07:25:05;89655.94;;;2.85;77.32
69909;BME280;57190;47.918;8.112;2024-03-02T07:27:32;89662.16;;;3.01;77.40
69909;BME280;57190;47.918;8.112;2024-03-02T07:29:58;89657.28;;;3.14;76.38
69909;BME280;57190;47.918;8.112;2024-03-02T07:32:24;89665.59;;;3.39;76.47
69909;BME280;57190;47.918;8.112;2024-03-02T07:34:49;89656.19;;;3.53;75.52
69909;BME280;57190;47.918;8.112;2024-03-02T07:37:16;89661.59;;;3.69;75.23
69909;BME280;57190;47.918;8.112;2024-03-02T07:39:43;89659.31;;;3.93;74.69
69909;BME280;57190;47.918;8.112;2024-03-02T07:42:09;89650.69;;;4.08;73.43
69909;BME280;57190;47.918;8.112;2024-03-02T07:44:35;89660.84;;;4.42;72.46
69909;BME280;57190;47.918;8.112;2024-03-02T07:47:00;89665.75;;;5.17;70.65
69909;BME280;57190;47.918;8.112;2024-03-02T07:49:26;89670.13;;;6.25;67.63
69909;BME280;57190;47.918;8.112;2024-03-02T07:51:52;89663.81;;;6.16;66.60
69909;BME280;57190;47.918;8.112;2024-03-02T07:54:17;89661.66;;;6.23;66.33
69909;BME280;57190;47.918;8.112;2024-03-02T07:56:43;89655.97;;;7.06;63.87
69909;BME280;57190;47.918;8.112;2024-03-02T07:59:08;89657.63;;;7.36;62.95
69909;BME280;57190;47.918;8.112;2024-03-02T08:01:34;89651.34;;;8.64;60.20
69909;BME280;57190;47.918;8.112;2024-03-02T08:04:02;89648.63;;;10.45;56.77
69909;BME280;57190;47.918;8.112;2024-03-02T08:06:30;89644.09;;;11.60;51.89
69909;BME280;57190;47.918;8.112;2024-03-02T08:08:58;89656.03;;;12.31;52.77
69909;BME280;57190;47.918;8.112;2024-03-02T08:11:24;89650.59;;;11.31;50.80
69909;BME280;57190;47.918;8.112;2024-03-02T08:13:50;89650.81;;;12.57;49.28
69909;BME280;57190;47.918;8.112;2024-03-02T08:16:17;89652.50;;;14.04;44.92
69909;BME280;57190;47.918;8.112;2024-03-02T08:18:49;89644.56;;;13.29;47.18
69909;BME280;57190;47.918;8.112;2024-03-02T08:21:15;89654.53;;;13.46;46.82
69909;BME280;57190;47.918;8.112;2024-03-02T08:23:42;89645.72;;;14.07;44.66
69909;BME280;57190;47.918;8.112;2024-03-02T08:26:08;89647.41;;;16.63;41.57
69909;BME280;57190;47.918;8.112;2024-03-02T08:28:34;89640.66;;;17.94;37.10
69909;BME280;57190;47.918;8.112;2024-03-02T08:30:59;89648.69;;;19.71;35.40
69909;BME280;57190;47.918;8.112;2024-03-02T08:33:25;89652.38;;;21.86;34.08
69909;BME280;57190;47.918;8.112;2024-03-02T08:35:50;89640.06;;;23.66;30.01
69909;BME280;57190;47.918;8.112;2024-03-02T08:38:16;89629.59;;;23.72;29.43
69909;BME280;57190;47.918;8.112;2024-03-02T08:40:42;89634.84;;;23.47;28.83
69909;BME280;57190;47.918;8.112;2024-03-02T08:43:07;89631.41;;;24.06;27.97
69909;BME280;57190;47.918;8.112;2024-03-02T08:45:33;89639.00;;;24.45;26.07
69909;BME280;57190;47.918;8.112;2024-03-02T08:47:59;89635.84;;;24.36;26.37
69909;BME280;57190;47.918;8.112;2024-03-02T08:50:25;89644.13;;;23.91;26.63
69909;BME280;57190;47.918;8.112;2024-03-02T08:52:51;89639.84;;;23.03;26.92
69909;BME280;57190;47.918;8.112;2024-03-02T08:55:16;89627.44;;;23.06;26.73
69909;BME280;57190;47.918;8.112;2024-03-02T08:57:42;89630.56;;;23.46;26.75
69909;BME280;57190;47.918;8.112;2024-03-02T09:00:08;89627.47;;;21.80;28.36
69909;BME280;57190;47.918;8.112;2024-03-02T09:02:34;89627.56;;;19.93;30.73
69909;BME280;57190;47.918;8.112;2024-03-02T09:04:59;89624.72;;;19.70;32.49
69909;BME280;57190;47.918;8.112;2024-03-02T09:07:25;89628.41;;;19.45;31.45
69909;BME280;57190;47.918;8.112;2024-03-02T09:09:50;89624.75;;;19.54;32.95
69909;BME280;57190;47.918;8.112;2024-03-02T09:12:18;89628.75;;;19.60;31.52
69909;BME280;57190;47.918;8.112;2024-03-02T09:14:44;89627.56;;;18.49;33.78
69909;BME280;57190;47.918;8.112;2024-03-02T09:17:10;89624.13;;;17.67;35.09
69909;BME280;57190;47.918;8.112;2024-03-02T09:19:36;89628.13;;;17.73;35.65
69909;BME280;57190;47.918;8.112;2024-03-02T09:22:02;89628.50;;;16.97;36.11
69909;BME280;57190;47.918;8.112;2024-03-02T09:24:31;89623.88;;;16.73;36.71
69909;BME280;57190;47.918;8.112;2024-03-02T09:26:58;89619.19;;;16.94;36.05
69909;BME280;57190;47.918;8.112;2024-03-02T09:29:24;89617.38;;;16.74;36.74
69909;BME280;57190;47.918;8.112;2024-03-02T09:31:49;89608.50;;;16.61;36.89
69909;BME280;57190;47.918;8.112;2024-03-02T09:34:16;89605.88;;;16.40;37.65
69909;BME280;57190;47.918;8.112;2024-03-02T09:36:41;89609.81;;;16.55;38.52
69909;BME280;57190;47.918;8.112;2024-03-02T09:39:08;89610.53;;;15.97;38.45
69909;BME280;57190;47.918;8.112;2024-03-02T09:41:38;89601.94;;;14.89;40.67
69909;BME280;57190;47.918;8.112;2024-03-02T09:44:04;89603.53;;;14.34;42.11
69909;BME280;57190;47.918;8.112;2024-03-02T09:46:30;89608.38;;;13.84;43.30
69909;BME280;57190;47.918;8.112;2024-03-02T09:48:56;89599.66;;;13.26;43.84
69909;BME280;57190;47.918;8.112;2024-03-02T09:51:22;89600.78;;;13.33;43.75
69909;BME280;57190;47.918;8.112;2024-03-02T09:53:48;89596.56;;;13.59;44.04
69909;BME280;57190;47.918;8.112;2024-03-02T09:56:14;89600.03;;;13.50;44.21
69909;BME280;57190;47.918;8.112;2024-03-02T09:58:41;89599.03;;;13.37;44.34
69909;BME280;57190;47.918;8.112;2024-03-02T10:01:07;89588.78;;;12.96;43.49
69909;BME280;57190;47.918;8.112;2024-03-02T10:03:36;89600.56;;;12.95;43.31
69909;BME280;57190;47.918;8.112;2024-03-02T10:06:24;89593.38;;;12.64;44.62
69909;BME280;57190;47.918;8.112;2024-03-02T10:08:50;89596.59;;;12.74;44.57
69909;BME280;57190;47.918;8.112;2024-03-02T10:14:10;89589.09;;;12.45;45.48
69909;BME280;57190;47.918;8.112;2024-03-02T10:16:40;89588.56;;;12.34;46.74
69909;BME280;57190;47.918;8.112;2024-03-02T10:19:22;89580.22;;;12.85;44.84
69909;BME280;57190;47.918;8.112;2024-03-02T10:21:53;89575.25;;;13.18;44.10
69909;BME280;57190;47.918;8.112;2024-03-02T10:24:21;89573.28;;;12.75;44.79
69909;BME280;57190;47.918;8.112;2024-03-02T10:26:48;89574.09;;;12.76;45.88
69909;BME280;57190;47.918;8.112;2024-03-02T10:29:13;89567.97;;;12.84;45.22
69909;BME280;57190;47.918;8.112;2024-03-02T10:31:41;89572.38;;;12.97;46.53
69909;BME280;57190;47.918;8.112;2024-03-02T10:34:10;89565.38;;;12.52;45.23
69909;BME280;57190;47.918;8.112;2024-03-02T10:36:36;89560.97;;;12.56;45.35
69909;BME280;57190;47.918;8.112;2024-03-02T10:39:07;89559.03;;;12.39;45.98
69909;BME280;57190;47.918;8.112;2024-03-02T10:41:35;89564.44;;;12.57;45.34
69909;BME280;57190;47.918;8.112;2024-03-02T10:44:05;89563.09;;;12.95;45.28
69909;BME280;57190;47.918;8.112;2024-03-02T10:46:33;89564.69;;;12.96;42.95
69909;BME280;57190;47.918;8.112;2024-03-02T10:48:59;89555.06;;;12.95;43.16
69909;BME280;57190;47.918;8.112;2024-03-02T10:51:26;89556.50;;;12.92;43.37
69909;BME280;57190;47.918;8.112;2024-03-02T10:53:54;89556.78;;;12.90;44.14
69909;BME280;57190;47.918;8.112;2024-03-02T10:56:28;89560.56;;;12.89;44.06
69909;BME280;57190;47.918;8.112;2024-03-02T11:02:12;89551.75;;;12.98;44.10
69909;BME280;57190;47.918;8.112;2024-03-02T11:04:40;89550.19;;;12.97;44.04
69909;BME280;57190;47.918;8.112;2024-03-02T11:07:08;89549.06;;;12.98;44.18
69909;BME280;57190;47.918;8.112;2024-03-02T11:09:42;89546.72;;;13.23;44.46
69909;BME280;57190;47.918;8.112;2024-03-02T11:12:31;89544.06;;;13.23;45.05
69909;BME280;57190;47.918;8.112;2024-03-02T11:15:04;89547.03;;;12.86;45.18
69909;BME280;57190;47.918;8.112;2024-03-02T11:17:35;89545.75;;;12.83;46.06
69909;BME280;57190;47.918;8.112;2024-03-02T11:20:03;89536.19;;;12.91;45.56
69909;BME280;57190;47.918;8.112;2024-03-02T11:22:28;89539.94;;;12.99;45.33
69909;BME280;57190;47.918;8.112;2024-03-02T11:24:55;89543.53;;;12.59;45.87
69909;BME280;57190;47.918;8.112;2024-03-02T11:33:00;89534.28;;;12.92;45.23
69909;BME280;57190;47.918;8.112;2024-03-02T11:35:28;89534.91;;;13.24;44.32
69909;BME280;57190;47.918;8.112;2024-03-02T11:37:54;89530.50;;;13.36;43.81
69909;BME280;57190;47.918;8.112;2024-03-02T11:40:25;89525.66;;;13.12;42.83
69909;BME280;57190;47.918;8.112;2024-03-02T11:42:50;89518.88;;;13.15;43.65
69909;BME280;57190;47.918;8.112;2024-03-02T11:45:17;89518.56;;;13.08;43.13
69909;BME280;57190;47.918;8.112;2024-03-02T11:47:50;89521.03;;;12.78;43.45
69909;BME280;57190;47.918;8.112;2024-03-02T11:50:15;89515.53;;;12.92;44.22
69909;BME280;57190;47.918;8.112;2024-03-02T11:52:53;89505.44;;;12.62;43.02
69909;BME280;57190;47.918;8.112;2024-03-02T11:55:19;89510.25;;;12.42;43.76
69909;BME280;57190;47.918;8.112;2024-03-02T11:57:46;89515.38;;;12.70;43.25
69909;BME280;57190;47.918;8.112;2024-03-02T12:00:18;89504.69;;;12.79;44.01
69909;BME280;57190;47.918;8.112;2024-03-02T12:02:44;89501.66;;;12.63;42.58
69909;BME280;57190;47.918;8.112;2024-03-02T12:05:15;89500.41;;;12.61;42.74
69909;BME280;57190;47.918;8.112;2024-03-02T12:07:42;89496.19;;;12.77;43.17
69909;BME280;57190;47.918;8.112;2024-03-02T12:10:08;89499.47;;;13.18;42.63
69909;BME280;57190;47.918;8.112;2024-03-02T12:12:34;89494.63;;;12.94;41.50
69909;BME280;57190;47.918;8.112;2024-03-02T12:15:00;89488.13;;;12.68;41.82
69909;BME280;57190;47.918;8.112;2024-03-02T12:17:26;89490.19;;;12.63;41.41
69909;BME280;57190;47.918;8.112;2024-03-02T12:19:51;89485.44;;;12.68;40.74
69909;BME280;57190;47.918;8.112;2024-03-02T12:22:18;89486.59;;;12.67;39.91
69909;BME280;57190;47.918;8.112;2024-03-02T12:24:44;89481.97;;;12.41;39.79
69909;BME280;57190;47.918;8.112;2024-03-02T12:27:14;89482.59;;;12.47;39.57
69909;BME280;57190;47.918;8.112;2024-03-02T12:29:41;89478.53;;;12.58;39.09
69909;BME280;57190;47.918;8.112;2024-03-02T12:32:06;89477.91;;;12.62;38.88
69909;BME280;57190;47.918;8.112;2024-03-02T12:34:33;89470.66;;;12.62;38.26
69909;BME280;57190;47.918;8.112;2024-03-02T12:36:59;89475.72;;;12.99;39.37
69909;BME280;57190;47.918;8.112;2024-03-02T12:39:24;89468.63;;;13.20;38.41
69909;BME280;57190;47.918;8.112;2024-03-02T12:41:51;89467.06;;;12.93;38.12
69909;BME280;57190;47.918;8.112;2024-03-02T12:44:17;89465.78;;;12.90;38.73
69909;BME280;57190;47.918;8.112;2024-03-02T12:46:43;89467.84;;;12.76;38.42
69909;BME280;57190;47.918;8.112;2024-03-02T12:49:11;89457.94;;;12.68;38.57
69909;BME280;57190;47.918;8.112;2024-03-02T12:51:38;89465.59;;;12.43;36.85
69909;BME280;57190;47.918;8.112;2024-03-02T12:54:06;89455.38;;;12.36;36.77
69909;BME280;57190;47.918;8.112;2024-03-02T12:56:32;89456.78;;;12.42;37.59
69909;BME280;57190;47.918;8.112;2024-03-02T12:58:59;89454.13;;;12.51;37.57
69909;BME280;57190;47.918;8.112;2024-03-02T13:01:25;89452.84;;;12.40;38.31
69909;BME280;57190;47.918;8.112;2024-03-02T13:03:52;89444.06;;;12.57;38.54
69909;BME280;57190;47.918;8.112;2024-03-02T13:06:18;89439.50;;;12.57;39.73
69909;BME280;57190;47.918;8.112;2024-03-02T13:08:45;89431.34;;;12.63;38.74
69909;BME280;57190;47.918;8.112;2024-03-02T13:11:11;89441.88;;;12.77;38.19
69909;BME280;57190;47.918;8.112;2024-03-02T13:13:38;89437.75;;;12.53;39.44
69909;BME280;57190;47.918;8.112;2024-03-02T13:16:10;89434.59;;;12.51;40.86
69909;BME280;57190;47.918;8.112;2024-03-02T13:18:38;89439.38;;;12.63;39.13
69909;BME280;57190;47.918;8.112;2024-03-02T13:21:03;89444.72;;;12.89;40.60
69909;BME280;57190;47.918;8.112;2024-03-02T13:23:29;89445.63;;;13.19;40.36